Terminal Aerodrome Forecast
Issued by NWS

Home | Current Version | Previous Version | Text Only | Print | Product List | Glossary On
Versions: 1 2 3 4 5 6 7 8 9 10 11 12 13 14 15 16 17
000
FTUS42 KJAX 291721
TAFVQQ
TAF
KVQQ 291721Z 2918/3018 VRB03KT P6SM BKN250
     FM291900 17006KT P6SM FEW050 BKN250
     FM300000 21003KT P6SM BKN250
     FM301000 24005KT P6SM BKN100 OVC250
     FM301200 27007KT P6SM BKN025 OVC050
     FM301300 30010KT P6SM VCSH OVC015
     FM301600 32012G19KT P6SM BKN025=

USA.gov is the U.S. government's official web portal to all federal, state and local government web resources and services.